KFXY/FXY METAR and TAF weather

Enter ICAO airport designator
Station Type Date Time Source
KFXY METAR 2020/04/02 02:15 UTC NOAA

KFXY 020215Z AUTO 13012G16KT 10SM CLR 10/04 A2994 RMK AO2


Station Type Date Time Source
KFXY Decoded METAR 2020/04/02 02:15 UTC NOAA

Station name not available
Apr 01, 2020 - 10:15 PM EDT / 2020.04.02 0215 UTC
Wind: from the SE (130 degrees) at 14 MPH (12 KT) gusting to 18 MPH (16 KT):0
Visibility: 10 mile(s):0
Sky conditions: clear
Temperature: 50 F (10 C)
Dew Point: 39 F (4 C)
Relative Humidity: 66%
Pressure (altimeter): 29.94 in. Hg (1013 hPa)
ob: KFXY 020215Z AUTO 13012G16KT 10SM CLR 10/04 A2994 RMK AO2
cycle: 2

Station Type Date Time Source
KFXY TAF UTC NOAA

Error!

Example: see airport list